createdAt,value
2022-11-05T00:01:25.003Z,13.97
2022-11-05T00:04:11.220Z,15.93
2022-11-05T00:06:59.809Z,15.33
2022-11-05T00:09:30.404Z,17.13
2022-11-05T00:12:30.049Z,15.50
2022-11-05T00:15:17.481Z,16.23
2022-11-05T00:17:46.589Z,16.40
2022-11-05T00:20:14.393Z,16.47
2022-11-05T00:23:00.606Z,16.07
2022-11-05T00:25:30.124Z,17.87
2022-11-05T00:28:04.065Z,16.53
2022-11-05T00:30:31.986Z,16.40
2022-11-05T00:33:03.670Z,17.47
2022-11-05T00:35:31.424Z,16.90
2022-11-05T00:37:58.977Z,17.40
2022-11-05T00:40:26.616Z,16.93
2022-11-05T00:43:12.998Z,18.80
2022-11-05T00:45:41.229Z,17.47
2022-11-05T00:48:27.440Z,16.83
2022-11-05T00:50:55.265Z,15.30
2022-11-05T00:53:23.065Z,14.97
2022-11-05T00:55:50.696Z,15.73
2022-11-05T00:58:23.864Z,16.23
2022-11-05T01:00:59.826Z,16.20
2022-11-05T01:03:39.233Z,16.60
2022-11-05T01:06:14.692Z,16.40
2022-11-05T01:08:46.707Z,16.30
2022-11-05T01:11:35.444Z,16.87
2022-11-05T01:14:13.506Z,17.70
2022-11-05T01:16:42.326Z,18.10
2022-11-05T01:19:19.241Z,21.07
2022-11-05T01:21:47.551Z,22.03
2022-11-05T01:24:15.075Z,21.70
2022-11-05T01:26:42.783Z,20.60
2022-11-05T01:29:11.936Z,21.37
2022-11-05T01:31:39.726Z,23.33
2022-11-05T01:34:07.315Z,23.00
2022-11-05T01:36:37.870Z,25.83
2022-11-05T01:39:18.727Z,24.40
2022-11-05T01:41:50.381Z,24.77
2022-11-05T01:45:29.480Z,27.40
2022-11-05T01:48:50.317Z,26.50
2022-11-05T01:51:27.655Z,26.33
2022-11-05T01:54:08.942Z,30.53
2022-11-05T01:56:54.508Z,29.30
2022-11-05T01:59:49.678Z,30.10
2022-11-05T02:02:19.330Z,28.20
2022-11-05T02:05:01.125Z,28.90
2022-11-05T02:07:31.112Z,27.40
2022-11-05T02:10:18.121Z,26.73
2022-11-05T02:12:53.821Z,24.47
2022-11-05T02:16:32.899Z,22.30
2022-11-05T02:19:58.390Z,24.40
2022-11-05T02:23:10.966Z,21.00
2022-11-05T02:26:50.172Z,21.27
2022-11-05T02:30:06.958Z,21.10
2022-11-05T02:33:06.691Z,20.80
2022-11-05T02:36:02.341Z,21.20
2022-11-05T02:39:08.034Z,22.40
2022-11-05T02:42:21.666Z,21.10
2022-11-05T02:46:12.759Z,21.47
2022-11-05T02:49:47.962Z,20.87
2022-11-05T02:53:01.853Z,18.50
2022-11-05T02:55:49.699Z,17.50
2022-11-05T02:58:17.582Z,17.80
2022-11-05T03:00:56.038Z,17.47
2022-11-05T03:03:43.117Z,20.70
2022-11-05T03:06:51.672Z,17.60
2022-11-05T03:10:33.357Z,18.43
2022-11-05T03:13:48.340Z,17.50
2022-11-05T03:16:39.139Z,17.40
2022-11-05T03:19:31.878Z,17.43
2022-11-05T03:22:32.668Z,18.60
2022-11-05T03:25:14.344Z,16.17
2022-11-05T03:27:54.423Z,20.60
2022-11-05T03:30:22.862Z,18.00
2022-11-05T03:33:05.906Z,18.03
2022-11-05T03:35:47.245Z,17.53
2022-11-05T03:38:28.939Z,18.37
2022-11-05T03:41:08.753Z,18.57
2022-11-05T03:43:47.081Z,18.07
2022-11-05T03:46:48.108Z,18.50
2022-11-05T03:49:33.056Z,17.17
2022-11-05T03:52:17.497Z,17.50
2022-11-05T03:54:47.179Z,19.50
2022-11-05T03:57:35.607Z,19.37
2022-11-05T04:00:10.972Z,21.93
2022-11-05T04:02:42.736Z,22.67
2022-11-05T04:05:12.037Z,23.80
2022-11-05T04:07:58.466Z,22.03
2022-11-05T04:11:05.193Z,21.83
2022-11-05T04:13:34.199Z,21.70
2022-11-05T04:16:19.910Z,20.07
2022-11-05T04:18:47.723Z,22.10
2022-11-05T04:21:34.699Z,23.70
2022-11-05T04:24:09.665Z,23.37
2022-11-05T04:26:44.326Z,25.53
2022-11-05T04:29:30.935Z,25.27
2022-11-05T04:31:58.762Z,23.73
2022-11-05T04:34:26.508Z,21.83
2022-11-05T04:36:54.112Z,24.67
2022-11-05T04:39:22.834Z,25.10
2022-11-05T04:41:50.541Z,23.50
2022-11-05T04:44:18.251Z,24.20
2022-11-05T04:46:46.172Z,21.17
2022-11-05T04:49:13.862Z,23.53
2022-11-05T04:51:41.445Z,20.53
2022-11-05T04:54:08.970Z,22.20
2022-11-05T04:56:36.638Z,23.50
2022-11-05T04:59:04.701Z,22.73
2022-11-05T05:01:32.489Z,22.90
2022-11-05T05:04:00.135Z,22.67
2022-11-05T05:06:27.964Z,22.77
2022-11-05T05:08:55.495Z,20.23
2022-11-05T05:11:23.601Z,22.37
2022-11-05T05:13:51.399Z,22.77
2022-11-05T05:16:28.124Z,22.50
2022-11-05T05:18:56.419Z,21.70
2022-11-05T05:21:40.505Z,21.40
2022-11-05T05:24:19.111Z,20.57
2022-11-05T05:26:51.648Z,21.70
2022-11-05T05:29:19.560Z,21.90
2022-11-05T05:31:47.135Z,21.80
2022-11-05T05:34:15.655Z,21.10
2022-11-05T05:36:43.322Z,21.63
2022-11-05T05:39:11.318Z,21.27
2022-11-05T05:41:39.070Z,23.67
2022-11-05T05:44:07.143Z,24.97
2022-11-05T05:46:35.206Z,23.70
2022-11-05T05:49:05.508Z,25.77
2022-11-05T05:51:37.318Z,25.90
2022-11-05T05:54:05.382Z,25.07
2022-11-05T05:56:32.922Z,26.30
2022-11-05T05:59:00.552Z,25.87
2022-11-05T06:01:28.280Z,24.90
2022-11-05T06:03:56.031Z,26.50
2022-11-05T06:06:23.596Z,24.63
2022-11-05T06:08:51.210Z,25.10
2022-11-05T06:11:19.092Z,26.23
2022-11-05T06:13:46.772Z,25.13
2022-11-05T06:16:14.664Z,22.87
2022-11-05T06:18:42.792Z,25.40
2022-11-05T06:21:16.699Z,25.00
2022-11-05T06:23:48.441Z,26.10
2022-11-05T06:26:19.204Z,24.73
2022-11-05T06:28:47.472Z,27.57
2022-11-05T06:31:16.007Z,26.27
2022-11-05T06:33:43.562Z,26.70
2022-11-05T06:36:18.503Z,28.33
2022-11-05T06:38:46.985Z,25.83
2022-11-05T06:41:15.129Z,24.00
2022-11-05T06:43:43.068Z,28.03
2022-11-05T06:46:12.392Z,27.33
2022-11-05T06:48:40.322Z,26.40
2022-11-05T06:51:09.668Z,28.30
2022-11-05T06:53:37.405Z,29.03
2022-11-05T06:56:08.068Z,28.50
2022-11-05T06:58:36.240Z,26.57
2022-11-05T07:01:10.060Z,29.57
2022-11-05T07:03:39.433Z,28.47
2022-11-05T07:06:08.696Z,28.43
2022-11-05T07:08:38.528Z,33.60
2022-11-05T07:11:06.803Z,31.47
2022-11-05T07:13:34.600Z,33.07
2022-11-05T07:16:08.624Z,34.73
2022-11-05T07:18:37.109Z,31.73
2022-11-05T07:21:05.198Z,33.17
2022-11-05T07:23:32.831Z,35.97
2022-11-05T07:26:00.628Z,35.20
2022-11-05T07:28:28.331Z,37.37
2022-11-05T07:30:59.227Z,40.27
2022-11-05T07:33:26.850Z,38.70
2022-11-05T07:35:58.229Z,40.80
2022-11-05T07:38:26.778Z,39.27
2022-11-05T07:40:54.685Z,37.80
2022-11-05T07:43:22.233Z,37.23
2022-11-05T07:45:49.850Z,38.80
2022-11-05T07:48:17.490Z,40.20
2022-11-05T07:50:45.104Z,39.70
2022-11-05T07:53:15.183Z,40.17
2022-11-05T07:55:46.055Z,42.33
2022-11-05T07:58:14.531Z,39.83
2022-11-05T08:00:44.059Z,43.80
2022-11-05T08:03:28.240Z,44.23
2022-11-05T08:05:58.811Z,43.87
2022-11-05T08:08:26.801Z,40.47
2022-11-05T08:10:54.396Z,37.33
2022-11-05T08:13:21.979Z,35.10
2022-11-05T08:15:49.498Z,31.80
2022-11-05T08:18:18.867Z,30.53
2022-11-05T08:20:48.142Z,27.43
2022-11-05T08:23:16.337Z,24.40
2022-11-05T08:25:44.122Z,24.80
2022-11-05T08:28:13.931Z,22.60
2022-11-05T08:30:43.612Z,22.87
2022-11-05T08:33:15.036Z,21.60
2022-11-05T08:35:43.232Z,20.60
2022-11-05T08:38:15.283Z,20.50
2022-11-05T08:40:53.446Z,20.30
2022-11-05T08:43:21.722Z,20.60
2022-11-05T08:45:50.052Z,19.80
2022-11-05T08:48:19.720Z,19.70
2022-11-05T08:50:49.804Z,19.77
2022-11-05T08:53:17.786Z,17.53
2022-11-05T08:55:47.740Z,16.17
2022-11-05T08:58:18.433Z,14.00
2022-11-05T09:00:50.380Z,15.10
2022-11-05T09:03:19.117Z,14.13
2022-11-05T09:05:47.383Z,13.37
2022-11-05T09:08:19.621Z,13.67
2022-11-05T09:10:49.920Z,15.13
2022-11-05T09:13:20.071Z,14.83
2022-11-05T09:15:51.869Z,15.37
2022-11-05T09:18:21.222Z,13.73
2022-11-05T09:20:49.043Z,13.33
2022-11-05T09:23:17.205Z,14.60
2022-11-05T09:25:45.440Z,15.30
2022-11-05T09:28:22.888Z,14.30
2022-11-05T09:30:53.037Z,14.20
2022-11-05T09:33:25.865Z,14.00
2022-11-05T09:35:54.208Z,12.80
2022-11-05T09:38:22.140Z,13.80
2022-11-05T09:41:04.146Z,12.23
2022-11-05T09:43:58.719Z,12.80
2022-11-05T09:46:58.566Z,12.10
2022-11-05T09:49:44.612Z,11.70
2022-11-05T09:52:29.910Z,10.37
2022-11-05T09:54:58.751Z,12.07
2022-11-05T09:57:59.517Z,11.03
2022-11-05T10:00:30.685Z,9.83
2022-11-05T10:03:14.520Z,10.83
2022-11-05T10:05:43.464Z,10.37
2022-11-05T10:09:12.477Z,10.17
2022-11-05T10:11:54.749Z,9.90
2022-11-05T10:14:39.261Z,9.80
2022-11-05T10:17:29.131Z,10.70
2022-11-05T10:20:37.418Z,9.60
2022-11-05T10:23:23.452Z,8.63
2022-11-05T10:26:14.675Z,8.73
2022-11-05T10:28:42.570Z,8.60
2022-11-05T10:31:21.141Z,9.43
2022-11-05T10:34:06.952Z,8.20
2022-11-05T10:36:38.648Z,8.17
2022-11-05T10:39:20.496Z,8.37
2022-11-05T10:42:46.904Z,7.30
2022-11-05T10:46:06.040Z,7.90
2022-11-05T10:49:14.859Z,6.60
2022-11-05T10:51:47.193Z,7.70
2022-11-05T10:54:24.904Z,7.17
2022-11-05T10:56:53.541Z,7.80
2022-11-05T10:59:30.142Z,6.83
2022-11-05T11:02:26.536Z,7.60
2022-11-05T11:04:58.431Z,7.30
2022-11-05T11:07:27.644Z,6.03
2022-11-05T11:09:55.557Z,5.60
2022-11-05T11:12:42.820Z,6.30
2022-11-05T11:15:20.348Z,5.93
2022-11-05T11:17:48.487Z,6.60
2022-11-05T11:20:43.494Z,7.00
2022-11-05T11:23:17.753Z,5.63
2022-11-05T11:26:03.838Z,6.43
2022-11-05T11:28:54.134Z,6.50
2022-11-05T11:31:29.893Z,5.17
2022-11-05T11:34:29.157Z,6.10
2022-11-05T11:37:31.134Z,6.73
2022-11-05T11:40:19.447Z,7.03
2022-11-05T11:43:01.195Z,6.40
2022-11-05T11:45:44.912Z,6.43
2022-11-05T11:48:27.808Z,6.47
2022-11-05T11:50:59.542Z,6.00
2022-11-05T11:53:36.093Z,6.00
2022-11-05T11:56:20.071Z,5.70
2022-11-05T11:58:55.656Z,5.87
2022-11-05T12:01:48.590Z,6.90
2022-11-05T12:05:11.932Z,7.10
2022-11-05T12:08:25.168Z,6.47
2022-11-05T12:11:25.608Z,6.07
2022-11-05T12:14:45.206Z,6.63
2022-11-05T12:17:55.382Z,6.63
2022-11-05T12:21:01.567Z,6.23
2022-11-05T12:24:18.824Z,6.80
2022-11-05T12:27:16.240Z,5.43
2022-11-05T12:30:14.390Z,6.37
2022-11-05T12:33:38.634Z,5.80
2022-11-05T12:37:23.902Z,5.67
2022-11-05T12:40:47.491Z,5.93
2022-11-05T12:43:54.527Z,5.47
2022-11-05T12:46:51.608Z,6.33
2022-11-05T12:50:02.700Z,6.03
2022-11-05T12:52:57.540Z,6.07
2022-11-05T12:55:37.759Z,5.47
2022-11-05T12:58:40.742Z,4.90
2022-11-05T13:01:39.982Z,5.37
2022-11-05T13:05:01.564Z,5.00
2022-11-05T13:07:40.104Z,4.70
2022-11-05T13:10:42.880Z,5.90
2022-11-05T13:13:49.691Z,5.27
2022-11-05T13:16:46.419Z,4.83
2022-11-05T13:19:28.522Z,5.63
2022-11-05T13:22:38.124Z,5.53
2022-11-05T13:25:33.684Z,5.27
2022-11-05T13:28:51.863Z,5.10
2022-11-05T13:31:40.227Z,4.70
2022-11-05T13:34:13.519Z,4.50
2022-11-05T13:37:18.626Z,4.63
2022-11-05T13:40:07.315Z,3.93
2022-11-05T13:43:36.384Z,5.70
2022-11-05T13:46:43.166Z,5.17
2022-11-05T13:50:14.439Z,5.03
2022-11-05T13:53:39.693Z,5.40
2022-11-05T13:57:26.413Z,4.73
2022-11-05T14:00:17.875Z,4.97
2022-11-05T14:03:15.611Z,4.43
2022-11-05T14:05:53.676Z,4.50
2022-11-05T14:08:29.987Z,5.20
2022-11-05T14:11:24.325Z,4.33
2022-11-05T14:14:16.003Z,4.90
2022-11-05T14:17:14.881Z,4.30
2022-11-05T14:20:04.633Z,5.50
2022-11-05T14:22:32.360Z,5.10
2022-11-05T14:25:24.375Z,4.77
2022-11-05T14:27:58.319Z,5.07
2022-11-05T14:30:49.018Z,4.03
2022-11-05T14:33:25.463Z,4.03
2022-11-05T14:36:30.655Z,3.67
2022-11-05T14:39:26.408Z,3.47
2022-11-05T14:42:15.147Z,3.27
2022-11-05T14:45:45.134Z,3.40
2022-11-05T14:48:48.003Z,3.40
2022-11-05T14:51:40.399Z,3.03
2022-11-05T14:54:54.254Z,3.10
2022-11-05T14:57:43.499Z,3.10
2022-11-05T15:00:30.331Z,3.37
2022-11-05T15:03:31.145Z,3.23
2022-11-05T15:06:28.667Z,2.90
2022-11-05T15:09:29.100Z,3.37
2022-11-05T15:11:56.688Z,2.60
2022-11-05T15:14:56.035Z,3.23
2022-11-05T15:17:34.712Z,2.60
2022-11-05T15:20:23.747Z,3.50
2022-11-05T15:23:03.995Z,3.77
2022-11-05T15:26:02.925Z,3.60
2022-11-05T15:28:49.810Z,4.20
2022-11-05T15:31:37.888Z,4.63
2022-11-05T15:34:36.797Z,3.93
2022-11-05T15:37:27.590Z,3.90
2022-11-05T15:39:56.331Z,4.83
2022-11-05T15:42:27.894Z,4.47
2022-11-05T15:45:00.025Z,4.30
2022-11-05T15:47:36.642Z,4.37
2022-11-05T15:50:16.356Z,4.70
2022-11-05T15:52:55.473Z,5.22
2022-11-05T15:55:27.136Z,4.57
2022-11-05T15:58:09.599Z,4.40
2022-11-05T16:00:37.677Z,4.30
2022-11-05T16:03:34.871Z,4.23
2022-11-05T16:06:03.400Z,4.07
2022-11-05T16:08:32.179Z,4.30
2022-11-05T16:11:02.060Z,4.00
2022-11-05T16:13:41.501Z,3.53
2022-11-05T16:16:15.008Z,3.57
2022-11-05T16:18:45.759Z,5.70
2022-11-05T16:21:20.136Z,7.15
2022-11-05T16:24:00.655Z,4.20
2022-11-05T16:27:01.867Z,4.27
2022-11-05T16:29:50.436Z,4.10
2022-11-05T16:32:31.772Z,3.67
2022-11-05T16:35:16.330Z,4.93
2022-11-05T16:37:49.138Z,5.00
2022-11-05T16:40:25.854Z,3.80
2022-11-05T16:42:54.774Z,3.83
2022-11-05T16:45:25.509Z,3.43
2022-11-05T16:47:53.272Z,4.67
2022-11-05T16:50:32.982Z,5.53
2022-11-05T16:53:00.629Z,4.73
2022-11-05T16:55:29.798Z,5.00
2022-11-05T16:57:59.285Z,4.50
2022-11-05T17:00:27.026Z,4.50
2022-11-05T17:02:55.590Z,5.10
2022-11-05T17:05:31.575Z,5.50
2022-11-05T17:08:01.254Z,4.50
2022-11-05T17:10:28.985Z,5.00
2022-11-05T17:12:57.274Z,6.10
2022-11-05T17:15:33.725Z,7.30
2022-11-05T17:18:04.385Z,6.30
2022-11-05T17:20:46.122Z,6.10
2022-11-05T17:23:21.158Z,6.20
2022-11-05T17:25:58.955Z,6.37
2022-11-05T17:28:27.350Z,6.60
2022-11-05T17:30:56.440Z,7.93
2022-11-05T17:33:24.367Z,4.40
2022-11-05T17:35:53.848Z,5.40
2022-11-05T17:38:25.291Z,5.17
2022-11-05T17:40:54.175Z,5.00
2022-11-05T17:43:21.988Z,4.57
2022-11-05T17:45:53.255Z,4.00
2022-11-05T17:48:21.845Z,5.20
2022-11-05T17:50:51.322Z,4.50
2022-11-05T17:53:19.966Z,3.70
2022-11-05T17:55:48.418Z,3.83
2022-11-05T17:58:16.446Z,5.40
2022-11-05T18:00:47.799Z,4.90
2022-11-05T18:03:15.840Z,5.13
2022-11-05T18:05:44.142Z,4.07
2022-11-05T18:08:12.731Z,5.00
2022-11-05T18:10:42.244Z,5.00
2022-11-05T18:13:11.272Z,5.50
2022-11-05T18:15:41.468Z,4.27
2022-11-05T18:18:09.830Z,3.80
2022-11-05T18:20:39.078Z,5.93
2022-11-05T18:23:06.749Z,4.30
2022-11-05T18:25:34.513Z,3.20
2022-11-05T18:28:03.349Z,3.90
2022-11-05T18:30:31.036Z,4.20
2022-11-05T18:32:58.595Z,4.33
2022-11-05T18:35:26.665Z,4.40
2022-11-05T18:37:54.393Z,5.20
2022-11-05T18:40:22.759Z,3.83
2022-11-05T18:42:50.595Z,4.23
2022-11-05T18:45:18.255Z,3.90
2022-11-05T18:47:45.873Z,3.93
2022-11-05T18:50:14.874Z,3.60
2022-11-05T18:52:42.505Z,3.97
2022-11-05T18:55:10.437Z,3.40
2022-11-05T18:57:38.267Z,8.90
2022-11-05T19:00:07.700Z,4.00
2022-11-05T19:02:35.428Z,4.00
2022-11-05T19:07:51.578Z,3.50
2022-11-05T19:10:19.399Z,3.47
2022-11-05T19:12:47.078Z,4.67
2022-11-05T19:15:14.799Z,4.37
2022-11-05T19:17:42.714Z,3.77
2022-11-05T19:20:12.103Z,3.57
2022-11-05T19:22:39.758Z,4.47
2022-11-05T19:25:08.387Z,5.57
2022-11-05T19:27:38.695Z,4.30
2022-11-05T19:30:07.533Z,4.80
2022-11-05T19:32:35.209Z,4.37
2022-11-05T19:35:02.845Z,4.50
2022-11-05T19:37:30.396Z,4.50
2022-11-05T19:39:58.083Z,4.67
2022-11-05T19:42:26.969Z,4.60
2022-11-05T19:44:54.591Z,4.13
2022-11-05T19:47:22.776Z,3.50
2022-11-05T19:49:50.377Z,3.93
2022-11-05T19:52:18.133Z,4.60
2022-11-05T19:54:46.143Z,4.50
2022-11-05T19:57:13.935Z,4.43
2022-11-05T19:59:41.528Z,5.37
2022-11-05T20:02:16.022Z,5.27
2022-11-05T20:04:44.430Z,4.40
2022-11-05T20:07:12.012Z,5.13
2022-11-05T20:09:40.405Z,4.33
2022-11-05T20:12:08.170Z,5.70
2022-11-05T20:14:35.962Z,5.50
2022-11-05T20:17:03.846Z,5.60
2022-11-05T20:19:31.579Z,4.80
2022-11-05T20:22:02.398Z,4.50
2022-11-05T20:24:30.654Z,5.50
2022-11-05T20:26:58.888Z,5.60
2022-11-05T20:29:33.861Z,4.70
2022-11-05T20:32:04.903Z,5.80
2022-11-05T20:34:35.034Z,4.93
2022-11-05T20:37:02.882Z,4.50
2022-11-05T20:39:31.038Z,5.50
2022-11-05T20:42:00.562Z,6.17
2022-11-05T20:44:28.577Z,5.30
2022-11-05T20:46:56.932Z,5.53
2022-11-05T20:49:25.882Z,6.20
2022-11-05T20:51:54.552Z,5.17
2022-11-05T20:54:22.559Z,5.57
2022-11-05T20:56:50.430Z,5.47
2022-11-05T20:59:18.207Z,5.07
2022-11-05T21:01:46.034Z,5.43
2022-11-05T21:04:13.771Z,5.40
2022-11-05T21:06:41.376Z,5.30
2022-11-05T21:09:09.057Z,4.60
2022-11-05T21:11:56.540Z,5.43
2022-11-05T21:14:24.206Z,6.30
2022-11-05T21:16:51.910Z,5.90
2022-11-05T21:19:19.895Z,5.53
2022-11-05T21:21:47.902Z,5.53
2022-11-05T21:24:15.878Z,6.37
2022-11-05T21:26:43.449Z,5.67
2022-11-05T21:29:11.218Z,5.87
2022-11-05T21:31:39.905Z,6.10
2022-11-05T21:34:07.866Z,6.30
2022-11-05T21:36:35.731Z,6.10
2022-11-05T21:39:07.709Z,5.83
2022-11-05T21:41:38.954Z,6.30
2022-11-05T21:44:06.825Z,5.23
2022-11-05T21:46:34.508Z,5.10
2022-11-05T21:49:02.432Z,6.33
2022-11-05T21:51:48.421Z,6.37
2022-11-05T21:54:34.522Z,5.93
2022-11-05T21:57:21.321Z,6.87
2022-11-05T21:59:49.237Z,6.67
2022-11-05T22:02:24.011Z,6.37
2022-11-05T22:04:56.452Z,6.23
2022-11-05T22:07:34.662Z,7.63
2022-11-05T22:10:07.567Z,7.90
2022-11-05T22:12:37.123Z,7.77
2022-11-05T22:15:06.164Z,7.37
2022-11-05T22:17:33.871Z,7.43
2022-11-05T22:20:01.430Z,7.10
2022-11-05T22:22:29.722Z,7.67
2022-11-05T22:24:57.330Z,7.63
2022-11-05T22:27:24.912Z,8.30
2022-11-05T22:29:52.567Z,7.40
2022-11-05T22:32:20.181Z,7.17
2022-11-05T22:34:49.572Z,7.00
2022-11-05T22:37:17.437Z,6.87
2022-11-05T22:39:45.139Z,7.47
2022-11-05T22:42:12.851Z,7.50
2022-11-05T22:44:40.575Z,6.60
2022-11-05T22:47:08.297Z,7.07
2022-11-05T22:49:36.015Z,6.90
2022-11-05T22:52:03.873Z,7.10
2022-11-05T22:54:37.890Z,7.10
2022-11-05T22:57:06.949Z,6.40
2022-11-05T22:59:34.528Z,6.63
2022-11-05T23:02:08.251Z,5.90
2022-11-05T23:04:38.522Z,5.73
2022-11-05T23:07:27.805Z,6.47
2022-11-05T23:10:14.980Z,6.30
2022-11-05T23:12:44.479Z,6.67
2022-11-05T23:15:33.359Z,6.73
2022-11-05T23:18:19.801Z,5.90
2022-11-05T23:21:11.635Z,6.30
2022-11-05T23:23:57.754Z,5.50
2022-11-05T23:26:44.002Z,5.30
2022-11-05T23:29:11.588Z,7.10
2022-11-05T23:31:57.426Z,6.10
2022-11-05T23:34:25.231Z,5.87
2022-11-05T23:37:11.223Z,6.80
2022-11-05T23:39:42.581Z,6.20
2022-11-05T23:42:29.989Z,6.90
2022-11-05T23:45:16.701Z,5.63
2022-11-05T23:48:03.095Z,5.80
2022-11-05T23:50:37.118Z,6.27
2022-11-05T23:53:08.810Z,4.87
2022-11-05T23:55:37.182Z,5.50
2022-11-05T23:58:06.986Z,5.17
